Time,TemperatureF,DewpointF,PressureIn,WindDirection,WindDirectionDegrees,WindSpeedMPH,WindSpeedGustMPH,Humidity,HourlyPrecipIn,Conditions,Clouds,dailyrainin,SoftwareType,DateUTC
2013-01-18 00:07:00,59.9,51.0,30.12,NW,308,17.0,17.0,73,0.00,,,0.00,weatherlink.com 1.10,2013-01-18 05:07:00,
2013-01-18 00:22:00,59.8,52.0,30.13,NNW,336,11.0,18.0,74,0.00,,,0.00,weatherlink.com 1.10,2013-01-18 05:22:00,
2013-01-18 00:37:00,59.7,51.0,30.13,WNW,300,10.0,17.0,74,0.00,,,0.00,weatherlink.com 1.10,2013-01-18 05:37:00,
2013-01-18 00:52:00,59.2,51.0,30.14,NW,316,8.0,17.0,74,0.00,,,0.00,weatherlink.com 1.10,2013-01-18 05:52:00,
2013-01-18 01:07:00,59.1,51.0,30.14,NW,314,7.0,14.0,75,0.00,,,0.00,weatherlink.com 1.10,2013-01-18 06:07:00,
2013-01-18 01:22:00,58.8,51.0,30.13,WNW,300,9.0,17.0,75,0.00,,,0.00,weatherlink.com 1.10,2013-01-18 06:22:00,
2013-01-18 01:37:00,58.7,51.0,30.13,NW,321,10.0,15.0,75,0.00,,,0.00,weatherlink.com 1.10,2013-01-18 06:37:00,
2013-01-18 01:52:00,58.4,51.0,30.13,NW,322,7.0,14.0,75,0.00,,,0.00,weatherlink.com 1.10,2013-01-18 06:52:00,
2013-01-18 02:07:00,58.4,50.0,30.13,NNW,333,9.0,16.0,74,0.00,,,0.00,weatherlink.com 1.10,2013-01-18 07:07:00,
2013-01-18 02:22:00,58.3,50.0,30.13,NW,320,6.0,12.0,74,0.00,,,0.00,weatherlink.com 1.10,2013-01-18 07:22:00,
2013-01-18 02:37:00,58.0,50.0,30.13,NW,315,11.0,16.0,74,0.00,,,0.00,weatherlink.com 1.10,2013-01-18 07:37:00,
2013-01-18 02:53:00,57.4,50.0,30.13,NW,309,10.0,18.0,76,0.00,,,0.00,weatherlink.com 1.10,2013-01-18 07:53:00,
2013-01-18 03:08:00,57.0,50.0,30.14,NW,316,9.0,15.0,76,0.00,,,0.00,weatherlink.com 1.10,2013-01-18 08:08:00,
2013-01-18 03:23:00,56.5,49.0,30.14,NNW,347,13.0,18.0,75,0.00,,,0.00,weatherlink.com 1.10,2013-01-18 08:23:00,
2013-01-18 03:38:00,56.1,48.0,30.14,NW,326,7.0,15.0,75,0.00,,,0.00,weatherlink.com 1.10,2013-01-18 08:38:00,
2013-01-18 03:53:00,55.5,48.0,30.15,West,279,8.0,16.0,76,0.00,,,0.00,weatherlink.com 1.10,2013-01-18 08:53:00,
2013-01-18 04:08:00,55.0,48.0,30.15,NNW,342,11.0,15.0,76,0.00,,,0.00,weatherlink.com 1.10,2013-01-18 09:08:00,
2013-01-18 04:23:00,54.8,47.0,30.15,NNW,333,13.0,18.0,76,0.00,,,0.00,weatherlink.com 1.10,2013-01-18 09:23:00,
2013-01-18 04:38:00,54.5,47.0,30.15,NW,308,9.0,16.0,76,0.00,,,0.00,weatherlink.com 1.10,2013-01-18 09:38:00,
2013-01-18 04:53:00,53.7,47.0,30.16,NW,321,8.0,15.0,77,0.00,,,0.00,weatherlink.com 1.10,2013-01-18 09:53:00,
2013-01-18 05:08:00,53.4,47.0,30.16,NW,324,7.0,13.0,78,0.00,,,0.00,weatherlink.com 1.10,2013-01-18 10:08:00,
2013-01-18 05:23:00,52.9,46.0,30.17,NW,318,6.0,12.0,78,0.00,,,0.00,weatherlink.com 1.10,2013-01-18 10:23:00,
2013-01-18 05:38:00,52.4,46.0,30.17,NW,322,5.0,12.0,78,0.00,,,0.00,weatherlink.com 1.10,2013-01-18 10:38:00,
2013-01-18 05:53:00,52.1,45.0,30.18,NNW,339,9.0,12.0,78,0.00,,,0.00,weatherlink.com 1.10,2013-01-18 10:53:00,
2013-01-18 06:08:00,52.0,46.0,30.18,NNW,328,5.0,11.0,79,0.00,,,0.00,weatherlink.com 1.10,2013-01-18 11:08:00,
2013-01-18 06:23:00,51.8,46.0,30.19,North,359,11.0,12.0,79,0.00,,,0.00,weatherlink.com 1.10,2013-01-18 11:23:00,
2013-01-18 06:38:00,51.4,45.0,30.20,NNW,340,10.0,13.0,79,0.00,,,0.00,weatherlink.com 1.10,2013-01-18 11:38:00,
2013-01-18 06:53:00,50.5,43.0,30.21,North,4,14.0,22.0,76,0.00,,,0.00,weatherlink.com 1.10,2013-01-18 11:53:00,
2013-01-18 07:08:00,47.7,39.0,30.22,NNW,347,11.0,17.0,73,0.00,,,0.00,weatherlink.com 1.10,2013-01-18 12:08:00,
2013-01-18 07:23:00,46.9,39.0,30.23,NNE,25,15.0,16.0,74,0.00,,,0.00,weatherlink.com 1.10,2013-01-18 12:23:00,
2013-01-18 07:39:00,45.0,37.0,30.25,North,5,11.0,18.0,73,0.00,,,0.00,weatherlink.com 1.10,2013-01-18 12:39:00,
2013-01-18 07:54:00,43.1,36.0,30.26,North,354,13.0,18.0,75,0.00,,,0.00,weatherlink.com 1.10,2013-01-18 12:54:00,
2013-01-18 08:09:00,43.1,36.0,30.26,North,9,12.0,17.0,76,0.00,,,0.00,weatherlink.com 1.10,2013-01-18 13:09:00,
2013-01-18 08:24:00,43.9,36.0,30.27,NNW,335,10.0,15.0,74,0.00,,,0.00,weatherlink.com 1.10,2013-01-18 13:24:00,
2013-01-18 08:39:00,44.5,37.0,30.28,NNE,20,11.0,14.0,74,0.00,,,0.00,weatherlink.com 1.10,2013-01-18 13:39:00,
2013-01-18 08:54:00,44.9,37.0,30.29,NNE,30,11.0,16.0,73,0.00,,,0.00,weatherlink.com 1.10,2013-01-18 13:54:00,
2013-01-18 09:09:00,45.5,37.0,30.29,NNE,19,15.0,16.0,73,0.00,,,0.00,weatherlink.com 1.10,2013-01-18 14:09:00,
2013-01-18 09:24:00,46.4,38.0,30.29,North,5,16.0,17.0,72,0.00,,,0.00,weatherlink.com 1.10,2013-01-18 14:24:00,
2013-01-18 09:39:00,46.7,38.0,30.29,NE,51,8.0,15.0,71,0.00,,,0.00,weatherlink.com 1.10,2013-01-18 14:39:00,
2013-01-18 09:54:00,47.7,38.0,30.29,NE,45,10.0,14.0,70,0.00,,,0.00,weatherlink.com 1.10,2013-01-18 14:54:00,
2013-01-18 10:09:00,48.7,39.0,30.29,NE,52,7.0,13.0,68,0.00,,,0.00,weatherlink.com 1.10,2013-01-18 15:09:00,
2013-01-18 10:24:00,49.7,39.0,30.28,NE,41,6.0,10.0,67,0.00,,,0.00,weatherlink.com 1.10,2013-01-18 15:24:00,
2013-01-18 10:39:00,50.9,40.0,30.28,NE,54,6.0,12.0,66,0.00,,,0.00,weatherlink.com 1.10,2013-01-18 15:39:00,
2013-01-18 10:54:00,52.1,41.0,30.27,NE,49,6.0,10.0,67,0.00,,,0.00,weatherlink.com 1.10,2013-01-18 15:54:00,
2013-01-18 11:09:00,53.0,42.0,30.27,ENE,68,3.0,12.0,66,0.00,,,0.00,weatherlink.com 1.10,2013-01-18 16:09:00,
2013-01-18 11:24:00,54.5,43.0,30.27,ENE,58,9.0,13.0,66,0.00,,,0.00,weatherlink.com 1.10,2013-01-18 16:24:00,
2013-01-18 11:39:00,55.3,44.0,30.27,NNE,33,9.0,11.0,67,0.00,,,0.00,weatherlink.com 1.10,2013-01-18 16:39:00,
2013-01-18 11:55:00,56.3,45.0,30.26,ENE,62,7.0,13.0,66,0.00,,,0.00,weatherlink.com 1.10,2013-01-18 16:55:00,
2013-01-18 12:09:00,57.0,45.0,30.25,NE,50,9.0,10.0,65,0.00,,,0.00,weatherlink.com 1.10,2013-01-18 17:09:00,
2013-01-18 12:24:00,57.5,45.0,30.24,ENE,58,5.0,12.0,64,0.00,,,0.00,weatherlink.com 1.10,2013-01-18 17:24:00,
2013-01-18 12:39:00,58.5,46.0,30.23,NNE,17,12.0,12.0,64,0.00,,,0.00,weatherlink.com 1.10,2013-01-18 17:39:00,
2013-01-18 12:54:00,59.7,47.0,30.22,NE,41,8.0,10.0,64,0.00,,,0.00,weatherlink.com 1.10,2013-01-18 17:54:00,
2013-01-18 13:09:00,60.7,47.0,30.21,NE,49,8.0,12.0,62,0.00,,,0.00,weatherlink.com 1.10,2013-01-18 18:09:00,
2013-01-18 13:24:00,61.7,48.0,30.21,ENE,66,8.0,13.0,62,0.00,,,0.00,weatherlink.com 1.10,2013-01-18 18:24:00,
2013-01-18 13:39:00,62.2,49.0,30.20,NNE,28,13.0,15.0,63,0.00,,,0.00,weatherlink.com 1.10,2013-01-18 18:39:00,
2013-01-18 13:54:00,62.0,49.0,30.19,ENE,73,8.0,11.0,63,0.00,,,0.00,weatherlink.com 1.10,2013-01-18 18:54:00,
2013-01-18 14:09:00,63.3,50.0,30.19,ENE,62,5.0,11.0,62,0.00,,,0.00,weatherlink.com 1.10,2013-01-18 19:09:00,
2013-01-18 14:24:00,64.2,51.0,30.18,ENE,73,5.0,13.0,63,0.00,,,0.00,weatherlink.com 1.10,2013-01-18 19:24:00,
2013-01-18 14:39:00,64.5,51.0,30.18,ENE,62,9.0,12.0,62,0.00,,,0.00,weatherlink.com 1.10,2013-01-18 19:39:00,
2013-01-18 14:54:00,64.1,51.0,30.18,ENE,64,7.0,11.0,63,0.00,,,0.00,weatherlink.com 1.10,2013-01-18 19:54:00,
2013-01-18 15:09:00,64.9,51.0,30.18,NE,53,4.0,11.0,62,0.00,,,0.00,weatherlink.com 1.10,2013-01-18 20:09:00,
2013-01-18 15:24:00,65.0,52.0,30.18,ENE,64,10.0,13.0,63,0.00,,,0.00,weatherlink.com 1.10,2013-01-18 20:24:00,
2013-01-18 15:39:00,65.9,53.0,30.18,NE,46,6.0,10.0,63,0.00,,,0.00,weatherlink.com 1.10,2013-01-18 20:39:00,
2013-01-18 15:54:00,66.3,53.0,30.18,NE,51,8.0,12.0,62,0.00,,,0.00,weatherlink.com 1.10,2013-01-18 20:54:00,
2013-01-18 16:09:00,66.0,53.0,30.18,ENE,58,5.0,13.0,63,0.00,,,0.00,weatherlink.com 1.10,2013-01-18 21:09:00,
2013-01-18 16:24:00,66.7,54.0,30.18,NE,41,7.0,13.0,63,0.00,,,0.00,weatherlink.com 1.10,2013-01-18 21:24:00,
2013-01-18 16:39:00,66.8,54.0,30.18,ENE,58,6.0,12.0,63,0.00,,,0.00,weatherlink.com 1.10,2013-01-18 21:39:00,
2013-01-18 16:54:00,66.5,53.0,30.18,NNE,33,9.0,11.0,63,0.00,,,0.00,weatherlink.com 1.10,2013-01-18 21:54:00,
2013-01-18 17:09:00,66.5,54.0,30.18,NE,41,4.0,10.0,64,0.00,,,0.00,weatherlink.com 1.10,2013-01-18 22:09:00,
2013-01-18 17:24:00,66.7,54.0,30.19,NNE,20,9.0,14.0,64,0.00,,,0.00,weatherlink.com 1.10,2013-01-18 22:24:00,
2013-01-18 17:39:00,66.2,54.0,30.19,NE,41,8.0,13.0,65,0.00,,,0.00,weatherlink.com 1.10,2013-01-18 22:39:00,
2013-01-18 17:54:00,65.3,54.0,30.20,NE,37,5.0,8.0,67,0.00,,,0.00,weatherlink.com 1.10,2013-01-18 22:54:00,
2013-01-18 18:09:00,64.5,54.0,30.20,NE,45,3.0,6.0,69,0.00,,,0.00,weatherlink.com 1.10,2013-01-18 23:09:00,
2013-01-18 18:25:00,63.8,54.0,30.20,NE,37,3.0,6.0,71,0.00,,,0.00,weatherlink.com 1.10,2013-01-18 23:25:00,
2013-01-18 18:40:00,63.1,54.0,30.20,NNE,13,1.0,3.0,73,0.00,,,0.00,weatherlink.com 1.10,2013-01-18 23:40:00,
2013-01-18 18:55:00,63.2,55.0,30.20,NNE,26,5.0,6.0,75,0.00,,,0.00,weatherlink.com 1.10,2013-01-18 23:55:00,
2013-01-18 19:10:00,63.8,56.0,30.21,NE,44,4.0,7.0,76,0.00,,,0.00,weatherlink.com 1.10,2013-01-19 00:10:00,
2013-01-18 19:25:00,64.2,56.0,30.21,NNE,15,6.0,11.0,75,0.00,,,0.00,weatherlink.com 1.10,2013-01-19 00:25:00,
2013-01-18 19:40:00,64.0,56.0,30.22,NNE,20,5.0,9.0,74,0.00,,,0.00,weatherlink.com 1.10,2013-01-19 00:40:00,
2013-01-18 19:55:00,63.2,55.0,30.22,NNW,345,3.0,7.0,75,0.00,,,0.00,weatherlink.com 1.10,2013-01-19 00:55:00,
2013-01-18 20:10:00,62.2,55.0,30.22,NNE,20,4.0,7.0,76,0.00,,,0.00,weatherlink.com 1.10,2013-01-19 01:10:00,
2013-01-18 20:25:00,61.6,55.0,30.21,NNE,13,4.0,7.0,78,0.00,,,0.00,weatherlink.com 1.10,2013-01-19 01:25:00,
2013-01-18 20:40:00,60.9,54.0,30.22,NNE,18,4.0,7.0,79,0.00,,,0.00,weatherlink.com 1.10,2013-01-19 01:40:00,
2013-01-18 20:55:00,60.5,55.0,30.22,North,6,5.0,7.0,81,0.00,,,0.00,weatherlink.com 1.10,2013-01-19 01:55:00,
2013-01-18 21:10:00,60.2,55.0,30.22,North,359,6.0,8.0,84,0.00,,,0.00,weatherlink.com 1.10,2013-01-19 02:10:00,
2013-01-18 21:25:00,59.9,56.0,30.23,NNE,16,5.0,8.0,87,0.00,,,0.00,weatherlink.com 1.10,2013-01-19 02:25:00,
2013-01-18 21:40:00,59.7,57.0,30.23,NNE,12,5.0,8.0,89,0.00,,,0.00,weatherlink.com 1.10,2013-01-19 02:40:00,
2013-01-18 21:55:00,59.6,57.0,30.23,NNE,29,4.0,10.0,90,0.00,,,0.00,weatherlink.com 1.10,2013-01-19 02:55:00,
2013-01-18 22:10:00,59.4,57.0,30.23,North,6,3.0,8.0,91,0.00,,,0.00,weatherlink.com 1.10,2013-01-19 03:10:00,
2013-01-18 22:25:00,59.2,57.0,30.23,NNE,18,6.0,8.0,92,0.00,,,0.00,weatherlink.com 1.10,2013-01-19 03:25:00,
2013-01-18 22:40:00,58.9,57.0,30.23,North,355,3.0,6.0,92,0.00,,,0.00,weatherlink.com 1.10,2013-01-19 03:40:00,
2013-01-18 22:55:00,58.7,57.0,30.22,NNE,18,3.0,6.0,93,0.00,,,0.00,weatherlink.com 1.10,2013-01-19 03:55:00,
2013-01-18 23:10:00,58.6,57.0,30.22,North,8,5.0,6.0,94,0.00,,,0.00,weatherlink.com 1.10,2013-01-19 04:10:00,
2013-01-18 23:25:00,58.5,57.0,30.22,NNE,23,4.0,7.0,94,0.00,,,0.00,weatherlink.com 1.10,2013-01-19 04:25:00,
2013-01-18 23:40:00,58.4,57.0,30.21,NNE,23,5.0,6.0,95,0.00,,,0.00,weatherlink.com 1.10,2013-01-19 04:40:00,
2013-01-18 23:55:00,58.2,57.0,30.21,NNE,12,4.0,6.0,95,0.00,,,0.00,weatherlink.com 1.10,2013-01-19 04:55:00,